createdAt,value
2019-05-21T00:02:07.386Z,99702.48
2019-05-21T00:04:37.588Z,99702.23
2019-05-21T00:07:11.755Z,99704.02
2019-05-21T00:09:40.411Z,99712.26
2019-05-21T00:12:09.142Z,99717.75
2019-05-21T00:14:37.967Z,99716.72
2019-05-21T00:17:06.694Z,99714.86
2019-05-21T00:19:37.875Z,99713.98
2019-05-21T00:22:06.909Z,99712.99
2019-05-21T00:24:35.701Z,99720.00
2019-05-21T00:27:06.095Z,99717.58
2019-05-21T00:30:11.403Z,99723.95
2019-05-21T00:33:16.380Z,99726.01
2019-05-21T00:36:23.110Z,99716.81
2019-05-21T00:39:27.971Z,99708.39
2019-05-21T00:42:02.055Z,99721.28
2019-05-21T00:44:42.471Z,99730.55
2019-05-21T00:47:12.764Z,99727.13
2019-05-21T00:49:42.300Z,99732.05
2019-05-21T00:52:11.435Z,99729.95
2019-05-21T00:54:40.061Z,99730.70
2019-05-21T00:57:08.774Z,99727.70
2019-05-21T00:59:37.467Z,99729.48
2019-05-21T01:02:09.229Z,99730.62
2019-05-21T01:04:37.866Z,99730.06
2019-05-21T01:07:06.526Z,99732.06
2019-05-21T01:09:36.745Z,99730.77
2019-05-21T01:12:08.258Z,99736.57
2019-05-21T01:14:37.342Z,99736.77
2019-05-21T01:17:07.849Z,99729.41
2019-05-21T01:19:36.985Z,99727.15
2019-05-21T01:22:05.679Z,99726.51
2019-05-21T01:24:34.840Z,99728.34
2019-05-21T01:27:05.830Z,99726.45
2019-05-21T01:29:34.498Z,99720.68
2019-05-21T01:32:03.501Z,99721.98
2019-05-21T01:34:32.730Z,99725.84
2019-05-21T01:37:01.581Z,99723.70
2019-05-21T01:39:30.296Z,99721.83
2019-05-21T01:41:59.008Z,99719.39
2019-05-21T01:44:27.685Z,99719.98
2019-05-21T01:46:56.429Z,99724.97
2019-05-21T01:49:25.100Z,99722.72
2019-05-21T01:51:53.854Z,99723.13
2019-05-21T01:54:22.974Z,99727.23
2019-05-21T01:56:51.788Z,99730.56
2019-05-21T01:59:20.453Z,99732.39
2019-05-21T02:01:49.621Z,99732.58
2019-05-21T02:04:18.293Z,99736.42
2019-05-21T02:06:49.375Z,99734.95
2019-05-21T02:09:18.215Z,99720.86
2019-05-21T02:11:46.926Z,99728.31
2019-05-21T02:14:15.776Z,99721.22
2019-05-21T02:16:44.488Z,99717.23
2019-05-21T02:19:13.228Z,99727.39
2019-05-21T02:21:41.929Z,99732.95
2019-05-21T02:24:10.621Z,99730.34
2019-05-21T02:26:39.454Z,99731.48
2019-05-21T02:29:08.225Z,99732.60
2019-05-21T02:31:36.878Z,99738.30
2019-05-21T02:34:08.470Z,99737.38
2019-05-21T02:36:37.481Z,99741.27
2019-05-21T02:39:09.081Z,99740.35
2019-05-21T02:41:37.889Z,99739.70
2019-05-21T02:44:06.607Z,99747.53
2019-05-21T02:46:36.859Z,99748.55
2019-05-21T02:49:08.453Z,99750.97
2019-05-21T02:51:37.173Z,99749.52
2019-05-21T02:54:05.850Z,99755.02
2019-05-21T02:56:34.529Z,99749.80
2019-05-21T02:59:03.232Z,99757.05
2019-05-21T03:01:36.057Z,99765.16
2019-05-21T03:04:07.848Z,99763.49
2019-05-21T03:06:36.669Z,99765.73
2019-05-21T03:09:06.228Z,99765.44
2019-05-21T03:11:35.317Z,99766.65
2019-05-21T03:14:04.077Z,99770.02
2019-05-21T03:16:33.153Z,99761.62
2019-05-21T03:19:01.821Z,99768.71
2019-05-21T03:21:30.571Z,99769.26
2019-05-21T03:23:59.282Z,99779.80
2019-05-21T03:26:28.006Z,99778.38
2019-05-21T03:28:56.733Z,99781.02
2019-05-21T03:31:25.455Z,99781.27
2019-05-21T03:33:54.152Z,99788.19
2019-05-21T03:36:33.540Z,99790.12
2019-05-21T03:38:53.358Z,99793.95
2019-05-21T03:41:22.120Z,99802.71
2019-05-21T03:43:50.865Z,99801.04
2019-05-21T03:46:19.673Z,99800.57
2019-05-21T03:48:48.408Z,99799.27
2019-05-21T03:51:17.633Z,99795.43
2019-05-21T03:53:53.462Z,99794.70
2019-05-21T03:56:22.435Z,99785.28
2019-05-21T03:58:51.262Z,99784.63
2019-05-21T04:01:20.178Z,99787.90
2019-05-21T04:03:48.838Z,99790.33
2019-05-21T04:06:17.600Z,99791.71
2019-05-21T04:08:46.311Z,99793.48
2019-05-21T04:11:15.020Z,99800.00
2019-05-21T04:13:43.742Z,99798.61
2019-05-21T04:16:16.866Z,99809.04
2019-05-21T04:18:53.262Z,99818.61
2019-05-21T04:21:22.188Z,99821.23
2019-05-21T04:23:51.220Z,99820.56
2019-05-21T04:26:19.936Z,99827.08
2019-05-21T04:28:48.591Z,99832.56
2019-05-21T04:31:17.277Z,99826.16
2019-05-21T04:33:45.960Z,99826.63
2019-05-21T04:36:14.697Z,99821.77
2019-05-21T04:38:43.717Z,99830.07
2019-05-21T04:41:12.441Z,99832.50
2019-05-21T04:43:41.152Z,99833.30
2019-05-21T04:46:10.273Z,99824.81
2019-05-21T04:48:39.452Z,99838.23
2019-05-21T04:51:08.570Z,99834.23
2019-05-21T04:53:37.883Z,99832.13
2019-05-21T04:56:06.878Z,99832.55
2019-05-21T04:58:38.605Z,99831.71
2019-05-21T05:01:08.144Z,99839.73
2019-05-21T05:03:37.288Z,99834.67
2019-05-21T05:06:08.002Z,99835.51
2019-05-21T05:08:37.346Z,99829.81
2019-05-21T05:11:08.449Z,99831.18
2019-05-21T05:13:37.570Z,99827.73
2019-05-21T05:16:09.466Z,99821.30
2019-05-21T05:18:38.081Z,99832.67
2019-05-21T05:21:06.786Z,99827.20
2019-05-21T05:23:35.712Z,99827.09
2019-05-21T05:26:08.024Z,99835.38
2019-05-21T05:28:37.055Z,99834.54
2019-05-21T05:31:05.744Z,99834.48
2019-05-21T05:33:34.730Z,99829.94
2019-05-21T05:36:03.932Z,99830.53
2019-05-21T05:38:32.596Z,99823.60
2019-05-21T05:41:01.330Z,99819.45
2019-05-21T05:43:30.011Z,99831.69
2019-05-21T05:45:58.786Z,99831.67
2019-05-21T05:48:28.310Z,99844.62
2019-05-21T05:50:58.671Z,99841.77
2019-05-21T05:53:27.350Z,99840.50
2019-05-21T05:55:56.131Z,99850.45
2019-05-21T05:58:24.985Z,99845.88
2019-05-21T06:00:53.634Z,99847.34
2019-05-21T06:03:22.406Z,99845.34
2019-05-21T06:05:51.119Z,99841.08
2019-05-21T06:08:19.834Z,99845.98
2019-05-21T06:10:48.547Z,99851.77
2019-05-21T06:13:17.224Z,99855.52
2019-05-21T06:15:45.981Z,99856.98
2019-05-21T06:18:14.658Z,99852.27
2019-05-21T06:20:43.413Z,99845.46
2019-05-21T06:23:12.540Z,99843.70
2019-05-21T06:25:41.197Z,99850.63
2019-05-21T06:28:10.371Z,99850.53
2019-05-21T06:30:39.084Z,99845.06
2019-05-21T06:33:07.698Z,99847.81
2019-05-21T06:35:36.818Z,99853.89
2019-05-21T06:38:17.201Z,99852.83
2019-05-21T06:40:39.175Z,99853.44
2019-05-21T06:43:07.897Z,99859.98
2019-05-21T06:45:36.700Z,99871.37
2019-05-21T06:48:08.470Z,99872.91
2019-05-21T06:50:37.796Z,99873.02
2019-05-21T06:53:07.156Z,99870.39
2019-05-21T06:55:35.967Z,99879.59
2019-05-21T06:58:07.570Z,99874.55
2019-05-21T07:00:39.484Z,99878.50
2019-05-21T07:03:08.180Z,99884.56
2019-05-21T07:05:36.994Z,99888.52
2019-05-21T07:08:05.710Z,99890.77
2019-05-21T07:10:34.650Z,99887.63
2019-05-21T07:13:03.331Z,99884.77
2019-05-21T07:15:32.043Z,99888.44
2019-05-21T07:18:00.758Z,99887.13
2019-05-21T07:20:29.572Z,99888.29
2019-05-21T07:22:58.353Z,99896.84
2019-05-21T07:25:27.309Z,99892.53
2019-05-21T07:27:56.024Z,99892.34
2019-05-21T07:30:24.835Z,99894.50
2019-05-21T07:32:53.497Z,99891.66
2019-05-21T07:35:22.276Z,99893.41
2019-05-21T07:37:50.985Z,99894.20
2019-05-21T07:40:20.034Z,99897.62
2019-05-21T07:42:48.673Z,99896.50
2019-05-21T07:45:17.662Z,99899.81
2019-05-21T07:47:46.380Z,99894.20
2019-05-21T07:50:15.294Z,99893.52
2019-05-21T07:52:44.249Z,99890.49
2019-05-21T07:55:13.118Z,99892.73
2019-05-21T07:57:41.851Z,99895.02
2019-05-21T08:00:11.774Z,99893.66
2019-05-21T08:02:40.588Z,99895.27
2019-05-21T08:05:09.474Z,99899.00
2019-05-21T08:07:38.221Z,99893.98
2019-05-21T08:10:08.294Z,99895.82
2019-05-21T08:12:39.452Z,99894.27
2019-05-21T08:15:09.033Z,99896.52
2019-05-21T08:17:37.797Z,99905.09
2019-05-21T08:20:10.402Z,99900.05
2019-05-21T08:22:39.233Z,99906.61
2019-05-21T08:25:08.474Z,99907.73
2019-05-21T08:27:37.179Z,99913.55
2019-05-21T08:30:07.542Z,99911.19
2019-05-21T08:32:39.544Z,99914.66
2019-05-21T08:35:08.460Z,99919.92
2019-05-21T08:37:37.125Z,99918.61
2019-05-21T08:40:07.166Z,99922.38
2019-05-21T08:42:37.324Z,99925.70
2019-05-21T08:45:08.007Z,99925.42
2019-05-21T08:47:36.752Z,99929.59
2019-05-21T08:50:08.288Z,99932.85
2019-05-21T08:52:37.059Z,99931.08
2019-05-21T08:55:06.926Z,99927.59
2019-05-21T08:57:35.572Z,99922.91
2019-05-21T09:00:09.794Z,99922.90
2019-05-21T09:02:38.431Z,99922.47
2019-05-21T09:05:08.144Z,99934.92
2019-05-21T09:07:36.787Z,99927.75
2019-05-21T09:10:08.428Z,99940.64
2019-05-21T09:12:37.138Z,99938.05
2019-05-21T09:15:08.107Z,99933.98
2019-05-21T09:17:36.746Z,99933.09
2019-05-21T09:20:09.429Z,99934.91
2019-05-21T09:22:38.231Z,99937.16
2019-05-21T09:25:08.279Z,99938.27
2019-05-21T09:27:37.019Z,99937.05
2019-05-21T09:30:08.579Z,99937.23
2019-05-21T09:32:37.413Z,99933.20
2019-05-21T09:35:09.103Z,99936.22
2019-05-21T09:37:38.213Z,99937.20
2019-05-21T09:40:11.292Z,99937.92
2019-05-21T09:42:39.942Z,99941.22
2019-05-21T09:45:09.987Z,99939.16
2019-05-21T09:47:38.634Z,99942.30
2019-05-21T09:50:08.479Z,99938.93
2019-05-21T09:52:37.244Z,99942.30
2019-05-21T09:55:07.772Z,99941.91
2019-05-21T09:57:53.620Z,99946.48
2019-05-21T10:00:42.322Z,99950.81
2019-05-21T10:03:18.807Z,99956.91
2019-05-21T10:05:47.448Z,99952.11
2019-05-21T10:08:16.157Z,99949.30
2019-05-21T10:10:44.851Z,99946.66
2019-05-21T10:13:13.571Z,99951.12
2019-05-21T10:15:42.218Z,99959.33
2019-05-21T10:18:11.003Z,99954.86
2019-05-21T10:20:39.681Z,99952.34
2019-05-21T10:23:08.328Z,99948.56
2019-05-21T10:25:37.052Z,99948.71
2019-05-21T10:28:05.955Z,99945.58
2019-05-21T10:30:37.711Z,99954.00
2019-05-21T10:33:06.466Z,99951.33
2019-05-21T10:35:36.551Z,99958.15
2019-05-21T10:38:06.777Z,99948.16
2019-05-21T10:40:38.599Z,99949.45
2019-05-21T10:43:07.288Z,99950.45
2019-05-21T10:45:37.656Z,99957.13
2019-05-21T10:48:09.235Z,99954.42
2019-05-21T10:50:37.957Z,99946.34
2019-05-21T10:53:07.175Z,99947.65
2019-05-21T10:55:35.906Z,99945.03
2019-05-21T10:58:05.146Z,99945.74
2019-05-21T11:00:36.521Z,99952.16
2019-05-21T11:03:08.297Z,99948.52
2019-05-21T11:05:47.493Z,99954.33
2019-05-21T11:08:24.976Z,99952.12
2019-05-21T11:10:46.659Z,99955.33
2019-05-21T11:13:15.351Z,99951.83
2019-05-21T11:15:44.173Z,99959.80
2019-05-21T11:18:12.888Z,99960.14
2019-05-21T11:20:42.022Z,99964.14
2019-05-21T11:23:10.812Z,99957.30
2019-05-21T11:25:39.526Z,99962.59
2019-05-21T11:28:08.288Z,99955.14
2019-05-21T11:30:37.100Z,99963.61
2019-05-21T11:33:05.802Z,99961.80
2019-05-21T11:35:37.258Z,99966.79
2019-05-21T11:38:07.467Z,99969.78
2019-05-21T11:40:39.020Z,99969.12
2019-05-21T11:43:07.745Z,99969.78
2019-05-21T11:45:36.562Z,99973.27
2019-05-21T11:48:06.712Z,99976.40
2019-05-21T11:50:38.608Z,99972.73
2019-05-21T11:53:07.316Z,99977.23
2019-05-21T11:55:37.568Z,99978.87
2019-05-21T11:58:09.478Z,99981.66
2019-05-21T12:00:38.457Z,99972.21
2019-05-21T12:03:07.315Z,99972.84
2019-05-21T12:05:39.458Z,99967.77
2019-05-21T12:08:08.147Z,99974.49
2019-05-21T12:10:36.788Z,99973.09
2019-05-21T12:13:08.749Z,99972.20
2019-05-21T12:15:37.394Z,99970.69
2019-05-21T12:18:08.953Z,99971.42
2019-05-21T12:20:37.767Z,99970.39
2019-05-21T12:23:06.787Z,99969.53
2019-05-21T12:25:38.292Z,99968.76
2019-05-21T12:28:10.977Z,99972.53
2019-05-21T12:30:37.537Z,99971.03
2019-05-21T12:33:09.325Z,99971.20
2019-05-21T12:35:37.971Z,99969.42
2019-05-21T12:38:06.749Z,99967.27
2019-05-21T12:40:38.734Z,99961.30
2019-05-21T12:43:07.993Z,99963.46
2019-05-21T12:45:36.812Z,99958.95
2019-05-21T12:48:08.397Z,99967.09
2019-05-21T12:50:37.107Z,99961.62
2019-05-21T12:53:05.895Z,99960.92
2019-05-21T12:55:37.718Z,99971.45
2019-05-21T12:58:06.483Z,99967.57
2019-05-21T13:00:36.689Z,99973.20
2019-05-21T13:03:08.491Z,99979.50
2019-05-21T13:05:37.081Z,99979.05
2019-05-21T13:08:05.940Z,99970.52
2019-05-21T13:10:37.515Z,99979.02
2019-05-21T13:13:09.612Z,99978.47
2019-05-21T13:15:38.259Z,99982.45
2019-05-21T13:18:06.920Z,99978.58
2019-05-21T13:20:35.749Z,99975.21
2019-05-21T13:23:04.446Z,99975.48
2019-05-21T13:25:33.215Z,99971.49
2019-05-21T13:28:02.512Z,99967.12
2019-05-21T13:30:31.328Z,99973.22
2019-05-21T13:33:00.456Z,99973.91
2019-05-21T13:35:29.203Z,99973.38
2019-05-21T13:37:58.088Z,99972.44
2019-05-21T13:40:27.211Z,99974.33
2019-05-21T13:42:55.865Z,99973.02
2019-05-21T13:45:24.540Z,99963.06
2019-05-21T13:47:53.347Z,99968.92
2019-05-21T13:50:22.055Z,99968.72
2019-05-21T13:52:51.008Z,99961.80
2019-05-21T13:55:19.694Z,99957.73
2019-05-21T13:57:48.530Z,99960.78
2019-05-21T14:00:28.945Z,99957.06
2019-05-21T14:02:57.710Z,99954.66
2019-05-21T14:05:27.263Z,99958.55
2019-05-21T14:07:56.114Z,99953.61
2019-05-21T14:10:24.781Z,99952.68
2019-05-21T14:12:53.525Z,99955.32
2019-05-21T14:15:22.240Z,99960.27
2019-05-21T14:17:50.959Z,99947.16
2019-05-21T14:20:19.866Z,99944.01
2019-05-21T14:22:48.578Z,99953.37
2019-05-21T14:25:17.302Z,99939.14
2019-05-21T14:27:46.105Z,99941.77
2019-05-21T14:30:15.533Z,99947.72
2019-05-21T14:32:44.423Z,99941.68
2019-05-21T14:35:13.162Z,99949.75
2019-05-21T14:37:41.896Z,99947.72
2019-05-21T14:40:11.709Z,99948.51
2019-05-21T14:42:40.458Z,99950.17
2019-05-21T14:45:09.350Z,99945.23
2019-05-21T14:47:38.198Z,99950.06
2019-05-21T14:50:08.407Z,99954.98
2019-05-21T14:52:37.253Z,99948.59
2019-05-21T14:55:08.061Z,99950.83
2019-05-21T14:57:36.845Z,99945.11
2019-05-21T15:00:09.136Z,99946.34
2019-05-21T15:02:37.940Z,99945.28
2019-05-21T15:05:06.893Z,99950.09
2019-05-21T15:07:38.188Z,99949.53
2019-05-21T15:10:07.423Z,99955.13
2019-05-21T15:12:37.667Z,99954.66
2019-05-21T15:15:09.361Z,99947.08
2019-05-21T15:17:38.186Z,99944.75
2019-05-21T15:20:12.943Z,99938.75
2019-05-21T15:22:41.758Z,99939.58
2019-05-21T15:25:10.463Z,99947.66
2019-05-21T15:27:39.190Z,99940.23
2019-05-21T15:30:08.697Z,99939.09
2019-05-21T15:32:37.427Z,99934.43
2019-05-21T15:35:09.336Z,99936.56
2019-05-21T15:37:38.002Z,99937.92
2019-05-21T15:40:07.726Z,99938.00
2019-05-21T15:42:36.448Z,99934.95
2019-05-21T15:45:06.495Z,99936.79
2019-05-21T15:47:36.742Z,99933.66
2019-05-21T15:50:06.148Z,99937.47
2019-05-21T15:52:35.120Z,99933.09
2019-05-21T15:55:07.303Z,99933.80
2019-05-21T15:57:39.441Z,99939.78
2019-05-21T16:00:10.969Z,99941.91
2019-05-21T16:02:39.686Z,99938.97
2019-05-21T16:05:08.736Z,99939.55
2019-05-21T16:07:38.011Z,99944.00
2019-05-21T16:10:07.843Z,99940.58
2019-05-21T16:12:42.383Z,99940.86
2019-05-21T16:15:15.004Z,99938.61
2019-05-21T16:17:44.619Z,99935.05
2019-05-21T16:20:15.138Z,99936.30
2019-05-21T16:22:45.297Z,99944.95
2019-05-21T16:25:14.142Z,99951.73
2019-05-21T16:27:42.835Z,99949.00
2019-05-21T16:30:11.550Z,99948.61
2019-05-21T16:32:40.280Z,99950.43
2019-05-21T16:35:09.335Z,99948.74
2019-05-21T16:37:38.105Z,99955.28
2019-05-21T16:40:07.858Z,99961.56
2019-05-21T16:42:36.580Z,99957.73
2019-05-21T16:45:07.855Z,99966.07
2019-05-21T16:47:45.646Z,99965.91
2019-05-21T16:50:08.467Z,99976.42
2019-05-21T16:52:37.776Z,99973.59
2019-05-21T16:55:07.798Z,99976.08
2019-05-21T16:57:36.535Z,99975.93
2019-05-21T17:00:15.539Z,99977.58
2019-05-21T17:02:44.401Z,99979.73
2019-05-21T17:05:13.355Z,99977.91
2019-05-21T17:07:42.251Z,99984.22
2019-05-21T17:10:11.298Z,99987.89
2019-05-21T17:12:40.397Z,99987.88
2019-05-21T17:15:10.884Z,99990.69
2019-05-21T17:17:40.196Z,99987.66
2019-05-21T17:20:11.016Z,99986.30
2019-05-21T17:22:39.796Z,99989.89
2019-05-21T17:25:09.852Z,99998.85
2019-05-21T17:27:38.556Z,100003.61
2019-05-21T17:30:10.341Z,99998.50
2019-05-21T17:32:39.619Z,100008.77
2019-05-21T17:35:09.402Z,100004.69
2019-05-21T17:37:38.902Z,100011.45
2019-05-21T17:40:08.621Z,100006.16
2019-05-21T17:42:41.421Z,100004.64
2019-05-21T17:45:10.571Z,100006.34
2019-05-21T17:47:39.231Z,100007.98
2019-05-21T17:50:08.876Z,100002.16
2019-05-21T17:52:37.602Z,100000.05
2019-05-21T17:55:09.785Z,100007.73
2019-05-21T17:57:38.818Z,99994.49
2019-05-21T18:00:09.110Z,99999.97
2019-05-21T18:02:37.809Z,99993.63
2019-05-21T18:05:08.445Z,99997.39
2019-05-21T18:07:37.971Z,99995.88
2019-05-21T18:10:09.698Z,100005.91
2019-05-21T18:12:39.073Z,100009.18
2019-05-21T18:15:10.450Z,100013.02
2019-05-21T18:17:40.194Z,100010.17
2019-05-21T18:20:09.315Z,100016.83
2019-05-21T18:22:40.145Z,100025.02
2019-05-21T18:25:10.339Z,100027.47
2019-05-21T18:27:39.152Z,100028.20
2019-05-21T18:30:09.599Z,100032.23
2019-05-21T18:32:38.330Z,100037.33
2019-05-21T18:35:08.311Z,100040.73
2019-05-21T18:37:38.291Z,100045.62
2019-05-21T18:40:08.658Z,100044.63
2019-05-21T18:42:37.298Z,100050.64
2019-05-21T18:45:08.171Z,100054.73
2019-05-21T18:47:36.893Z,100060.41
2019-05-21T18:50:08.782Z,100061.64
2019-05-21T18:52:37.816Z,100063.48
2019-05-21T18:55:06.895Z,100080.44
2019-05-21T18:57:35.756Z,100091.72
2019-05-21T19:00:06.808Z,100095.30
2019-05-21T19:02:38.282Z,100100.02
2019-05-21T19:05:08.667Z,100105.36
2019-05-21T19:07:37.383Z,100112.34
2019-05-21T19:10:09.085Z,100105.64
2019-05-21T19:12:38.826Z,100118.05
2019-05-21T19:15:08.717Z,100120.14
2019-05-21T19:17:37.532Z,100117.58
2019-05-21T19:20:10.180Z,100112.55
2019-05-21T19:22:39.281Z,100118.66
2019-05-21T19:25:08.927Z,100118.84
2019-05-21T19:27:37.789Z,100125.23
2019-05-21T19:30:08.996Z,100125.41
2019-05-21T19:32:37.822Z,100134.67
2019-05-21T19:35:08.371Z,100134.16
2019-05-21T19:37:37.161Z,100134.05
2019-05-21T19:40:08.943Z,100140.19
2019-05-21T19:42:53.452Z,100143.45
2019-05-21T19:45:09.400Z,100148.14
2019-05-21T19:47:38.501Z,100148.43
2019-05-21T19:50:10.445Z,100154.69
2019-05-21T19:52:39.198Z,100158.72
2019-05-21T19:55:08.281Z,100156.91
2019-05-21T19:57:38.480Z,100167.18
2019-05-21T20:00:08.527Z,100166.55
2019-05-21T20:02:37.481Z,100170.05
2019-05-21T20:05:10.086Z,100165.89
2019-05-21T20:07:40.214Z,100165.27
2019-05-21T20:10:09.746Z,100167.08
2019-05-21T20:12:38.695Z,100162.77
2019-05-21T20:15:08.241Z,100160.00
2019-05-21T20:17:38.977Z,100158.75
2019-05-21T20:20:09.594Z,100157.08
2019-05-21T20:22:39.944Z,100155.39
2019-05-21T20:25:10.258Z,100149.22
2019-05-21T20:27:39.061Z,100142.01
2019-05-21T20:30:13.175Z,100147.70
2019-05-21T20:32:41.247Z,100146.41
2019-05-21T20:35:12.788Z,100148.97
2019-05-21T20:37:43.872Z,100152.45
2019-05-21T20:40:12.980Z,100153.66
2019-05-21T20:42:41.805Z,100158.09
2019-05-21T20:45:13.581Z,100158.11
2019-05-21T20:47:44.364Z,100160.34
2019-05-21T20:50:15.361Z,100169.34
2019-05-21T20:52:44.181Z,100175.61
2019-05-21T20:55:13.214Z,100175.34
2019-05-21T20:57:42.251Z,100182.55
2019-05-21T21:00:13.445Z,100182.66
2019-05-21T21:02:42.745Z,100190.91
2019-05-21T21:05:13.363Z,100186.22
2019-05-21T21:07:42.555Z,100189.70
2019-05-21T21:10:11.981Z,100186.09
2019-05-21T21:12:41.534Z,100188.02
2019-05-21T21:15:11.565Z,100182.25
2019-05-21T21:17:40.838Z,100182.14
2019-05-21T21:20:10.216Z,100186.42
2019-05-21T21:22:39.229Z,100183.44
2019-05-21T21:25:08.807Z,100188.09
2019-05-21T21:27:37.517Z,100185.96
2019-05-21T21:30:10.406Z,100195.62
2019-05-21T21:32:39.679Z,100192.03
2019-05-21T21:35:10.615Z,100189.91
2019-05-21T21:37:39.469Z,100196.61
2019-05-21T21:40:10.161Z,100194.97
2019-05-21T21:42:39.777Z,100196.66
2019-05-21T21:45:09.103Z,100201.19
2019-05-21T21:47:40.518Z,100207.43
2019-05-21T21:50:10.586Z,100215.53
2019-05-21T21:52:39.756Z,100214.83
2019-05-21T21:55:09.101Z,100217.95
2019-05-21T21:57:37.666Z,100212.55
2019-05-21T22:00:30.445Z,100208.47
2019-05-21T22:03:02.173Z,100214.48
2019-05-21T22:05:31.186Z,100214.70
2019-05-21T22:08:00.330Z,100213.75
2019-05-21T22:10:29.346Z,100222.38
2019-05-21T22:12:58.571Z,100228.14
2019-05-21T22:15:27.389Z,100224.77
2019-05-21T22:17:56.106Z,100229.69
2019-05-21T22:20:25.031Z,100235.58
2019-05-21T22:22:53.743Z,100236.28
2019-05-21T22:25:22.461Z,100243.34
2019-05-21T22:27:51.540Z,100242.03
2019-05-21T22:30:21.416Z,100252.08
2019-05-21T22:32:50.545Z,100254.58
2019-05-21T22:35:19.776Z,100250.28
2019-05-21T22:37:48.485Z,100252.78
2019-05-21T22:40:17.256Z,100248.69
2019-05-21T22:42:46.524Z,100248.56
2019-05-21T22:45:15.745Z,100245.48
2019-05-21T22:47:44.455Z,100244.97
2019-05-21T22:50:13.988Z,100239.06
2019-05-21T22:52:42.701Z,100236.44
2019-05-21T22:55:11.822Z,100239.00
2019-05-21T22:57:40.533Z,100230.82
2019-05-21T23:00:09.648Z,100232.14
2019-05-21T23:02:40.212Z,100226.27
2019-05-21T23:05:09.040Z,100225.69
2019-05-21T23:07:37.744Z,100227.36
2019-05-21T23:10:09.735Z,100236.30
2019-05-21T23:12:38.648Z,100237.27
2019-05-21T23:15:23.956Z,100251.25
2019-05-21T23:17:40.385Z,100249.93
2019-05-21T23:20:12.443Z,100253.52
2019-05-21T23:22:45.498Z,100256.02
2019-05-21T23:25:15.548Z,100254.83
2019-05-21T23:27:44.482Z,100254.20
2019-05-21T23:30:16.391Z,100261.98
2019-05-21T23:32:46.033Z,100261.02
2019-05-21T23:35:16.285Z,100254.92
2019-05-21T23:37:46.649Z,100253.13
2019-05-21T23:40:15.900Z,100256.14
2019-05-21T23:42:44.787Z,100246.07
2019-05-21T23:45:15.568Z,100243.69
2019-05-21T23:47:44.362Z,100247.14
2019-05-21T23:50:14.520Z,100245.70
2019-05-21T23:52:43.247Z,100249.43
2019-05-21T23:55:12.645Z,100248.46
2019-05-21T23:57:42.077Z,100251.19
